Time;durP1;ratioP1;P1;durP2;ratioP2;P2;SDS_P1;SDS_P2;PMS_P1;PMS_P2;Temp;Humidity;BMP_temperature;BMP_pressure;BME280_temperature;BME280_humidity;BME280_pressure;Samples;Min_cycle;Max_cycle;Signal;HPM_P1;HPM_P2
2021/03/24 00:00:25;;;;;;;8.70;6.90;;;4.50;99.90;;;;;;4857979;28;20194;-79
2021/03/24 00:02:48;;;;;;;7.87;7.03;;;4.60;99.90;;;;;;4841301;28;20699;-77
2021/03/24 00:05:12;;;;;;;7.00;6.30;;;4.60;99.90;;;;;;4873931;28;20292;-80
2021/03/24 00:07:34;;;;;;;7.43;6.23;;;4.50;99.90;;;;;;4874994;28;20283;-79
2021/03/24 00:09:57;;;;;;;8.50;6.73;;;4.60;3.40;;;;;;4838766;28;20242;-79
2021/03/24 00:12:19;;;;;;;7.53;6.73;;;4.60;1.00;;;;;;4875806;28;20211;-82
2021/03/24 00:14:41;;;;;;;7.97;6.80;;;4.60;1.00;;;;;;4873566;28;20193;-78
2021/03/24 00:17:04;;;;;;;7.97;7.17;;;4.60;99.90;;;;;;4874464;28;20221;-80
2021/03/24 00:19:26;;;;;;;7.80;7.00;;;4.60;1.00;;;;;;4870298;28;20716;-77
2021/03/24 00:21:48;;;;;;;8.93;7.43;;;4.60;1.00;;;;;;4858550;28;20588;-83
2021/03/24 00:24:10;;;;;;;8.07;7.27;;;4.60;1.00;;;;;;4876380;28;20189;-80
2021/03/24 00:26:33;;;;;;;8.90;7.80;;;4.60;1.00;;;;;;4857117;28;20194;-83
2021/03/24 00:28:55;;;;;;;8.13;7.33;;;4.60;1.00;;;;;;4842066;28;20190;-76
2021/03/24 00:31:17;;;;;;;8.30;7.50;;;4.50;1.00;;;;;;4875685;28;20263;-79
2021/03/24 00:33:39;;;;;;;8.80;7.77;;;4.60;1.00;;;;;;4871387;28;20631;-81
2021/03/24 00:36:02;;;;;;;8.33;7.53;;;4.60;99.90;;;;;;4874465;28;20247;-78
2021/03/24 00:38:25;;;;;;;8.80;7.67;;;4.60;91.10;;;;;;4857566;28;20194;-79
2021/03/24 00:40:49;;;;;;;9.13;8.10;;;4.60;1.00;;;;;;4875386;28;20267;-80
2021/03/24 00:43:12;;;;;;;8.37;7.57;;;4.60;1.00;;;;;;4875216;28;20636;-80
2021/03/24 00:45:36;;;;;;;8.60;7.70;;;4.60;1.00;;;;;;4874641;28;20564;-82
2021/03/24 00:47:59;;;;;;;8.83;7.90;;;4.60;1.00;;;;;;4840550;28;20295;-81
2021/03/24 00:50:24;;;;;;;10.37;8.40;;;4.60;1.00;;;;;;4875437;28;20609;-82
2021/03/24 00:52:47;;;;;;;9.50;8.20;;;4.60;1.00;;;;;;4858488;28;20239;-79
2021/03/24 00:55:10;;;;;;;9.83;8.17;;;4.60;1.00;;;;;;4876450;28;20243;-76
2021/03/24 00:57:32;;;;;;;8.73;7.53;;;4.60;1.00;;;;;;4857854;28;20220;-81
2021/03/24 00:59:55;;;;;;;9.83;7.97;;;4.60;1.00;;;;;;4856054;28;20206;-80
2021/03/24 01:02:18;;;;;;;8.40;7.60;;;4.60;99.90;;;;;;4873378;28;20220;-82
2021/03/24 01:04:40;;;;;;;9.30;7.43;;;4.70;99.90;;;;;;4841992;28;20256;-80
2021/03/24 01:07:02;;;;;;;8.70;7.80;;;4.60;11.70;;;;;;4874133;28;20635;-82
2021/03/24 01:09:25;;;;;;;9.47;8.40;;;4.60;1.00;;;;;;4856031;28;20268;-78
2021/03/24 01:11:47;;;;;;;8.50;7.60;;;4.60;1.00;;;;;;4873401;28;20189;-83
2021/03/24 01:14:11;;;;;;;8.47;7.63;;;4.60;7.70;;;;;;4854129;28;20230;-81
2021/03/24 01:16:34;;;;;;;11.33;8.80;;;4.60;1.00;;;;;;4872153;28;20220;-80
2021/03/24 01:18:56;;;;;;;9.17;8.27;;;4.60;1.00;;;;;;4872431;28;20242;-77
2021/03/24 01:21:19;;;;;;;8.90;7.37;;;4.60;1.00;;;;;;4872371;28;20736;-79
2021/03/24 01:23:41;;;;;;;8.93;7.80;;;4.60;1.00;;;;;;4857746;28;20198;-85
2021/03/24 01:26:03;;;;;;;8.77;7.73;;;4.60;1.00;;;;;;4876222;28;20193;-84
2021/03/24 01:28:28;;;;;;;8.83;7.93;;;4.60;1.00;;;;;;4874263;28;20679;-83
2021/03/24 01:30:50;;;;;;;9.13;8.20;;;4.60;1.00;;;;;;4874678;28;20650;-81
2021/03/24 01:33:13;;;;;;;8.43;7.53;;;4.60;1.00;;;;;;4858493;28;20198;-85
2021/03/24 01:35:36;;;;;;;8.33;7.50;;;4.70;1.00;;;;;;4857742;28;20201;-82
2021/03/24 01:37:58;;;;;;;10.10;9.10;;;4.70;99.90;;;;;;4841223;28;20335;-78
2021/03/24 01:40:25;;;;;;;9.87;8.93;;;4.70;99.90;;;;;;4873466;28;20836;-82
2021/03/24 01:42:47;;;;;;;9.17;8.27;;;4.70;99.90;;;;;;4856810;28;20194;-82
2021/03/24 01:45:50;;;;;;;9.43;8.53;;;4.70;99.90;;;;;;4873939;28;20306;-81
2021/03/24 01:48:18;;;;;;;10.37;9.27;;;4.70;99.90;;;;;;4877688;28;20185;-81
2021/03/24 01:50:40;;;;;;;9.73;8.80;;;4.70;99.90;;;;;;4876887;28;20211;-81
2021/03/24 01:53:03;;;;;;;9.67;8.73;;;4.70;99.90;;;;;;4878226;28;20258;-83
2021/03/24 01:55:26;;;;;;;10.63;9.30;;;4.60;99.90;;;;;;4877567;28;20197;-78
2021/03/24 01:57:48;;;;;;;9.27;8.30;;;4.70;1.00;;;;;;4878340;28;20764;-83
2021/03/24 02:00:16;;;;;;;9.77;8.33;;;4.70;1.00;;;;;;4879561;28;20246;-78
2021/03/24 02:02:38;;;;;;;9.57;8.57;;;4.70;1.00;;;;;;4855107;28;20221;-80
2021/03/24 02:05:01;;;;;;;9.73;8.70;;;4.70;1.00;;;;;;4878491;28;20243;-83
2021/03/24 02:07:29;;;;;;;10.97;8.97;;;4.70;1.00;;;;;;4878386;28;20738;-81
2021/03/24 02:09:57;;;;;;;9.50;8.57;;;4.70;1.00;;;;;;4877956;28;20275;-86
2021/03/24 02:12:24;;;;;;;9.13;8.23;;;4.60;88.00;;;;;;4861330;28;20201;-82
2021/03/24 02:14:51;;;;;;;9.13;8.33;;;4.60;99.90;;;;;;4876982;28;20643;-82
2021/03/24 02:17:15;;;;;;;9.57;8.07;;;4.60;99.90;;;;;;4876775;28;20209;-83
2021/03/24 02:19:52;;;;;;;9.53;8.53;;;4.60;99.90;;;;;;4877588;28;20285;-82
2021/03/24 02:22:20;;;;;;;8.57;7.67;;;4.60;99.90;;;;;;4878854;28;20181;-78
2021/03/24 02:24:49;;;;;;;8.27;7.47;;;4.60;1.00;;;;;;4876708;28;20197;-85
2021/03/24 02:27:13;;;;;;;8.63;7.73;;;4.60;99.90;;;;;;4877406;28;20247;-82
2021/03/24 02:29:39;;;;;;;8.37;7.40;;;4.60;99.90;;;;;;4876970;28;20205;-84
2021/03/24 02:32:03;;;;;;;8.57;7.77;;;4.60;99.90;;;;;;4860812;28;20667;-79
2021/03/24 02:34:29;;;;;;;8.00;7.20;;;4.60;99.90;;;;;;4875743;28;20185;-82
2021/03/24 02:36:52;;;;;;;8.50;7.60;;;4.60;54.60;;;;;;4875756;28;20224;-77
2021/03/24 02:39:16;;;;;;;8.00;7.20;;;4.70;79.40;;;;;;4876674;28;20198;-80
2021/03/24 02:41:39;;;;;;;8.90;7.73;;;4.60;87.20;;;;;;4876295;28;20262;-78
2021/03/24 02:44:03;;;;;;;8.93;8.03;;;4.60;46.80;;;;;;4876176;28;20802;-82
2021/03/24 02:46:26;;;;;;;8.70;7.80;;;4.60;21.30;;;;;;4875969;28;20263;-80
2021/03/24 02:48:49;;;;;;;7.70;7.00;;;4.60;40.00;;;;;;4878101;28;20550;-81
2021/03/24 02:51:15;;;;;;;8.40;7.50;;;4.60;32.10;;;;;;4876654;28;20236;-78
2021/03/24 02:53:39;;;;;;;9.83;8.20;;;4.60;1.00;;;;;;4876842;28;20235;-80
2021/03/24 02:56:04;;;;;;;7.90;6.87;;;4.60;1.00;;;;;;4860376;28;20248;-81
2021/03/24 02:58:26;;;;;;;8.10;7.07;;;4.60;1.00;;;;;;4858140;28;20648;-79
2021/03/24 03:00:49;;;;;;;7.97;7.13;;;4.70;1.00;;;;;;4872741;28;20375;-81
2021/03/24 03:03:15;;;;;;;8.17;7.37;;;4.70;1.00;;;;;;4877173;28;20251;-79
2021/03/24 03:05:38;;;;;;;8.30;6.87;;;4.60;1.00;;;;;;4860306;28;20189;-80
2021/03/24 03:08:06;;;;;;;8.20;7.40;;;4.60;1.00;;;;;;4859272;28;20229;-82
2021/03/24 03:10:33;;;;;;;8.07;7.27;;;4.60;1.00;;;;;;4877207;28;20221;-78
2021/03/24 03:13:01;;;;;;;8.77;7.47;;;4.60;3.80;;;;;;4877636;28;20239;-80
2021/03/24 03:15:26;;;;;;;9.00;7.27;;;4.60;93.50;;;;;;4860169;28;20280;-81
2021/03/24 03:17:54;;;;;;;8.97;8.07;;;4.60;99.90;;;;;;4877476;28;20205;-83
2021/03/24 03:20:20;;;;;;;8.67;7.50;;;4.60;99.90;;;;;;4857364;28;20218;-83
2021/03/24 03:22:46;;;;;;;8.67;7.23;;;4.60;99.90;;;;;;4859771;28;20198;-81
2021/03/24 03:25:13;;;;;;;8.93;7.43;;;4.60;99.90;;;;;;4877971;28;20211;-82
2021/03/24 03:27:36;;;;;;;8.83;7.93;;;4.60;1.00;;;;;;4858681;28;20224;-80
2021/03/24 03:30:00;;;;;;;9.67;8.67;;;4.60;1.00;;;;;;4870457;28;20189;-80
2021/03/24 03:32:25;;;;;;;9.47;8.43;;;4.60;1.00;;;;;;4859625;28;20194;-80
2021/03/24 03:34:53;;;;;;;9.23;8.30;;;4.60;1.00;;;;;;4875738;28;20198;-80
2021/03/24 03:37:16;;;;;;;9.47;8.40;;;4.60;1.00;;;;;;4876526;28;20694;-81
2021/03/24 03:39:40;;;;;;;10.30;9.23;;;4.50;99.90;;;;;;4856319;28;20317;-81
2021/03/24 03:42:05;;;;;;;9.50;8.50;;;4.50;99.90;;;;;;4870423;28;20185;-82
2021/03/24 03:44:29;;;;;;;9.37;8.47;;;4.50;99.90;;;;;;4855494;28;20194;-80
2021/03/24 03:46:53;;;;;;;10.07;8.43;;;4.50;90.30;;;;;;4877442;28;20579;-79
2021/03/24 03:49:16;;;;;;;8.67;7.87;;;4.50;62.10;;;;;;4877317;28;20558;-80
2021/03/24 03:51:46;;;;;;;9.17;8.03;;;4.50;96.00;;;;;;4875677;28;20191;-80
2021/03/24 03:54:13;;;;;;;9.10;7.90;;;4.50;99.90;;;;;;4875701;28;20201;-83
2021/03/24 03:56:43;;;;;;;9.70;8.00;;;4.50;1.00;;;;;;4877411;28;20227;-78
2021/03/24 03:59:11;;;;;;;8.30;7.47;;;4.50;1.00;;;;;;4876260;28;20587;-86
2021/03/24 04:01:36;;;;;;;9.73;8.07;;;4.50;1.00;;;;;;4872630;28;20714;-84
2021/03/24 04:04:08;;;;;;;8.07;7.27;;;4.50;1.00;;;;;;4874673;28;20252;-83
2021/03/24 04:06:36;;;;;;;7.90;7.17;;;4.50;1.00;;;;;;4875862;28;20201;-82
2021/03/24 04:09:00;;;;;;;8.37;7.37;;;4.50;99.90;;;;;;4857902;28;20218;-83
2021/03/24 04:11:25;;;;;;;8.23;7.10;;;4.50;99.90;;;;;;4874650;28;20237;-81
2021/03/24 04:14:08;;;;;;;8.07;7.27;;;4.50;99.90;;;;;;4874973;28;20187;-82
2021/03/24 04:16:51;;;;;;;8.40;7.60;;;4.50;99.90;;;;;;4875561;28;20197;-81
2021/03/24 04:19:39;;;;;;;8.03;7.23;;;4.50;99.90;;;;;;4875584;28;20887;-84
2021/03/24 04:22:26;;;;;;;8.90;8.00;;;4.50;70.10;;;;;;4864584;28;20271;-83
2021/03/24 04:25:14;;;;;;;8.50;7.60;;;4.50;4.80;;;;;;4874935;28;20628;-82
2021/03/24 04:27:58;;;;;;;8.57;7.67;;;4.50;1.00;;;;;;4875990;28;20184;-84
2021/03/24 04:30:43;;;;;;;9.10;7.77;;;4.50;1.00;;;;;;4875538;28;20185;-79
2021/03/24 04:33:24;;;;;;;9.33;7.67;;;4.50;1.00;;;;;;4876814;28;20521;-79
2021/03/24 04:36:10;;;;;;;8.67;7.70;;;4.50;1.00;;;;;;4874961;28;20174;-79
2021/03/24 04:38:56;;;;;;;9.40;7.43;;;4.50;1.00;;;;;;4867345;28;20276;-80
2021/03/24 04:41:43;;;;;;;7.70;6.90;;;4.50;1.00;;;;;;4864470;28;20185;-80
2021/03/24 04:44:26;;;;;;;8.17;7.33;;;4.50;1.00;;;;;;4865113;28;20178;-79
2021/03/24 04:47:12;;;;;;;10.67;8.13;;;4.50;1.00;;;;;;4875468;28;20197;-79
2021/03/24 04:49:57;;;;;;;8.93;7.47;;;4.50;1.00;;;;;;4871411;28;20178;-81
2021/03/24 04:52:39;;;;;;;8.83;7.47;;;4.50;1.00;;;;;;4876723;28;20181;-80
2021/03/24 04:55:23;;;;;;;8.53;6.93;;;4.60;1.00;;;;;;4875548;28;20828;-80
2021/03/24 04:58:06;;;;;;;8.17;7.30;;;4.60;1.00;;;;;;4875702;28;20213;-78
2021/03/24 05:00:50;;;;;;;11.13;7.20;;;4.50;1.00;;;;;;4857372;28;20216;-81
2021/03/24 05:03:37;;;;;;;10.03;8.40;;;4.60;1.00;;;;;;4876303;28;20193;-80
2021/03/24 05:06:23;;;;;;;10.43;8.30;;;4.50;1.00;;;;;;4875374;28;20178;-81
2021/03/24 05:09:06;;;;;;;9.33;8.00;;;4.60;1.00;;;;;;4874784;28;20212;-79
2021/03/24 05:11:53;;;;;;;7.97;7.17;;;4.60;1.00;;;;;;4875360;28;20185;-83
2021/03/24 05:14:39;;;;;;;11.17;8.93;;;4.60;1.00;;;;;;4875602;28;20229;-81
2021/03/24 05:17:23;;;;;;;12.63;9.63;;;4.60;1.00;;;;;;4874878;28;20209;-80
2021/03/24 05:20:10;;;;;;;12.30;9.43;;;4.60;1.00;;;;;;4873642;28;20221;-82
2021/03/24 05:22:52;;;;;;;13.07;9.80;;;4.60;1.00;;;;;;4879319;28;20174;-80
2021/03/24 05:25:36;;;;;;;11.57;8.97;;;4.60;1.00;;;;;;4879728;28;20177;-79
2021/03/24 05:28:20;;;;;;;19.83;11.70;;;4.70;1.00;;;;;;4879296;28;20268;-80
2021/03/24 05:31:06;;;;;;;14.07;9.77;;;4.60;1.00;;;;;;4878961;28;20526;-79
2021/03/24 05:33:50;;;;;;;20.47;13.33;;;4.60;1.00;;;;;;4864191;28;20178;-79
2021/03/24 05:36:35;;;;;;;30.13;20.97;;;4.70;1.00;;;;;;4878770;28;20189;-80
2021/03/24 05:39:22;;;;;;;18.47;12.53;;;4.70;1.00;;;;;;4878266;28;20181;-81
2021/03/24 05:42:20;;;;;;;16.90;10.30;;;4.70;1.00;;;;;;4878881;28;20203;-81
2021/03/24 05:45:19;;;;;;;12.93;9.10;;;4.70;1.00;;;;;;4877748;28;20647;-81
2021/03/24 05:48:29;;;;;;;10.87;8.43;;;4.80;99.90;;;;;;4878615;28;20186;-80
2021/03/24 05:51:23;;;;;;;12.00;9.37;;;4.80;99.90;;;;;;4858447;28;20209;-81
2021/03/24 05:54:18;;;;;;;10.80;8.57;;;4.80;99.90;;;;;;4878958;28;20181;-79
2021/03/24 05:57:27;;;;;;;10.43;8.33;;;4.80;99.90;;;;;;4879806;28;20683;-80
2021/03/24 06:00:31;;;;;;;11.90;9.50;;;4.90;99.90;;;;;;4877464;28;20651;-80
2021/03/24 06:03:24;;;;;;;9.40;7.90;;;4.90;99.90;;;;;;4877480;28;20260;-80
2021/03/24 06:06:32;;;;;;;8.47;7.57;;;4.90;99.90;;;;;;4878339;28;20177;-80
2021/03/24 06:09:39;;;;;;;8.87;7.50;;;5.00;99.90;;;;;;4849188;28;20213;-82
2021/03/24 06:12:54;;;;;;;10.47;8.60;;;4.90;99.90;;;;;;4878394;28;20223;-84
2021/03/24 06:15:56;;;;;;;8.80;7.70;;;5.00;99.90;;;;;;4864474;28;20224;-83
2021/03/24 06:18:40;;;;;;;10.77;7.23;;;5.00;99.90;;;;;;4843646;28;20257;-80
2021/03/24 06:21:07;;;;;;;8.07;6.93;;;5.10;57.80;;;;;;4859848;28;20202;-81
2021/03/24 06:23:43;;;;;;;7.20;6.50;;;5.10;1.00;;;;;;4877222;28;20262;-80
2021/03/24 06:26:19;;;;;;;8.47;6.37;;;5.10;1.00;;;;;;4877763;28;20208;-86
2021/03/24 06:28:48;;;;;;;10.27;8.17;;;5.10;1.00;;;;;;4879239;28;20173;-85
2021/03/24 06:31:44;;;;;;;8.13;7.17;;;5.20;1.00;;;;;;4877831;28;20713;-82
2021/03/24 06:34:28;;;;;;;7.87;7.00;;;5.30;1.00;;;;;;4843329;28;20779;-84
2021/03/24 06:37:08;;;;;;;9.83;7.40;;;5.30;1.00;;;;;;4878754;28;20169;-80
2021/03/24 06:39:45;;;;;;;8.07;7.23;;;5.30;1.00;;;;;;4878218;28;20712;-80
2021/03/24 06:42:35;;;;;;;9.37;7.10;;;5.30;1.00;;;;;;4878122;28;20170;-79
2021/03/24 06:45:29;;;;;;;6.93;6.23;;;5.40;1.00;;;;;;4875975;28;20264;-83
2021/03/24 06:47:57;;;;;;;7.70;6.80;;;5.40;99.90;;;;;;4868112;28;20235;-82
2021/03/24 06:51:02;;;;;;;7.90;6.60;;;5.50;99.90;;;;;;4877756;28;20189;-78
2021/03/24 06:54:05;;;;;;;7.70;6.80;;;5.50;99.90;;;;;;4869124;28;20263;-80
2021/03/24 06:57:03;;;;;;;8.57;7.13;;;5.50;99.90;;;;;;4869206;28;20192;-85
2021/03/24 07:00:06;;;;;;;8.10;7.27;;;5.60;99.90;;;;;;4859650;28;20197;-83
2021/03/24 07:03:01;;;;;;;8.57;7.50;;;5.70;33.00;;;;;;4836045;28;20237;-81
2021/03/24 07:05:46;;;;;;;7.13;6.40;;;5.70;1.00;;;;;;4876569;28;20209;-83
2021/03/24 07:08:33;;;;;;;9.07;6.67;;;5.80;1.00;;;;;;4878388;28;20221;-81
2021/03/24 07:11:07;;;;;;;7.43;6.13;;;5.80;1.00;;;;;;4877260;28;20225;-83
2021/03/24 07:14:02;;;;;;;7.87;6.67;;;5.90;1.00;;;;;;4876681;28;20236;-83
2021/03/24 07:16:42;;;;;;;13.90;11.17;;;6.00;1.00;;;;;;4877073;28;20213;-80
2021/03/24 07:19:19;;;;;;;9.13;7.63;;;6.00;1.00;;;;;;4859254;28;20233;-80
2021/03/24 07:22:17;;;;;;;9.33;8.47;;;6.10;1.00;;;;;;4877034;28;20271;-80
2021/03/24 07:24:59;;;;;;;19.70;16.33;;;6.20;1.00;;;;;;4876848;28;20239;-81
2021/03/24 07:27:45;;;;;;;21.43;18.13;;;6.30;1.00;;;;;;4860120;28;20202;-84
2021/03/24 07:30:22;;;;;;;9.47;8.30;;;6.40;1.00;;;;;;4871934;28;20205;-81
2021/03/24 07:32:53;;;;;;;8.57;7.67;;;6.40;1.00;;;;;;4877658;28;20521;-82
2021/03/24 07:35:39;;;;;;;8.20;7.00;;;6.50;1.00;;;;;;4877630;28;20232;-83
2021/03/24 07:38:55;;;;;;;9.10;8.00;;;6.60;1.00;;;;;;4877486;28;20206;-80
2021/03/24 07:41:50;;;;;;;9.60;8.63;;;6.70;99.90;;;;;;4861862;28;20194;-83
2021/03/24 07:44:25;;;;;;;9.07;6.50;;;6.70;99.90;;;;;;4859344;28;20271;-81
2021/03/24 07:47:15;;;;;;;8.47;7.60;;;6.80;99.90;;;;;;4876031;28;20612;-80
2021/03/24 07:49:58;;;;;;;7.93;7.03;;;6.90;99.90;;;;;;4858201;28;20256;-82
2021/03/24 07:52:38;;;;;;;7.83;7.03;;;7.00;99.90;;;;;;4858757;28;20202;-81
2021/03/24 07:55:09;;;;;;;7.50;6.73;;;7.10;99.90;;;;;;4877205;28;20381;-80
2021/03/24 07:57:35;;;;;;;7.67;6.47;;;7.10;99.90;;;;;;4877489;28;20262;-80
2021/03/24 08:00:06;;;;;;;7.37;6.63;;;7.20;86.10;;;;;;4874924;28;20291;-80
2021/03/24 08:03:03;;;;;;;8.97;7.97;;;7.20;77.20;;;;;;4855372;28;20225;-79
2021/03/24 08:05:48;;;;;;;8.00;6.97;;;7.30;84.40;;;;;;4876888;28;20496;-82
2021/03/24 08:08:15;;;;;;;7.27;6.57;;;7.40;92.60;;;;;;4842055;28;20745;-81
2021/03/24 08:10:46;;;;;;;7.03;6.07;;;7.50;1.00;;;;;;4855985;28;20257;-84
2021/03/24 08:13:38;;;;;;;7.03;6.07;;;7.60;1.00;;;;;;4855831;28;20202;-78
2021/03/24 08:16:13;;;;;;;7.37;5.60;;;7.60;1.00;;;;;;4852581;28;20571;-80
2021/03/24 08:18:50;;;;;;;7.53;6.77;;;7.70;1.00;;;;;;4856440;28;20269;-78
2021/03/24 08:21:21;;;;;;;7.00;6.00;;;7.70;1.00;;;;;;4855685;28;20238;-82
2021/03/24 08:24:07;;;;;;;6.47;5.80;;;7.80;1.00;;;;;;4856761;28;20221;-81
2021/03/24 08:26:38;;;;;;;6.47;5.87;;;7.90;1.00;;;;;;4856270;28;20181;-81
2021/03/24 08:29:11;;;;;;;5.77;5.27;;;8.00;1.00;;;;;;4840484;28;20247;-78
2021/03/24 08:32:06;;;;;;;6.73;6.03;;;8.10;1.00;;;;;;4856201;28;20202;-83
2021/03/24 08:34:41;;;;;;;5.43;4.93;;;8.20;1.00;;;;;;4823165;28;20285;-80
2021/03/24 08:37:39;;;;;;;5.30;4.80;;;8.30;1.00;;;;;;4866697;28;20189;-79
2021/03/24 08:40:30;;;;;;;7.07;4.90;;;8.40;1.00;;;;;;4867958;28;20263;-81
2021/03/24 08:43:20;;;;;;;4.87;4.37;;;8.40;1.00;;;;;;4875446;28;20255;-81
2021/03/24 08:45:50;;;;;;;5.67;5.07;;;8.60;1.00;;;;;;4871399;28;20323;-84
2021/03/24 08:48:16;;;;;;;5.27;4.73;;;8.80;1.00;;;;;;4855263;28;20766;-80
2021/03/24 08:50:43;;;;;;;5.00;4.50;;;8.80;1.00;;;;;;4856548;28;20182;-80
2021/03/24 08:53:14;;;;;;;4.40;4.00;;;8.90;1.00;;;;;;4857070;28;20244;-78
2021/03/24 08:55:46;;;;;;;4.67;4.27;;;9.10;1.00;;;;;;4855666;28;20556;-82
2021/03/24 08:58:23;;;;;;;6.57;4.40;;;9.20;1.00;;;;;;4855351;28;20351;-80
2021/03/24 09:01:09;;;;;;;4.10;3.57;;;9.40;1.00;;;;;;4853318;28;20194;-86
2021/03/24 09:03:58;;;;;;;4.53;4.10;;;9.50;1.00;;;;;;4874387;28;20201;-82
2021/03/24 09:06:33;;;;;;;4.03;3.70;;;9.60;1.00;;;;;;4869244;28;20244;-82
2021/03/24 09:09:08;;;;;;;4.13;3.73;;;9.60;1.00;;;;;;4860959;28;20220;-83
2021/03/24 09:11:42;;;;;;;3.47;3.17;;;9.70;1.00;;;;;;4873918;28;20705;-80
2021/03/24 09:14:15;;;;;;;4.50;3.83;;;9.70;1.00;;;;;;4874709;28;20201;-81
2021/03/24 09:17:24;;;;;;;4.57;4.20;;;9.60;1.00;;;;;;4840393;28;20197;-82
2021/03/24 09:20:29;;;;;;;3.73;3.43;;;9.50;1.00;;;;;;4871180;28;20255;-83
2021/03/24 09:23:20;;;;;;;4.40;4.00;;;9.50;1.00;;;;;;4855274;28;20726;-83
2021/03/24 09:25:48;;;;;;;3.70;3.40;;;9.40;1.00;;;;;;4839256;28;20194;-83
2021/03/24 09:28:47;;;;;;;3.53;3.23;;;9.40;1.00;;;;;;4856296;28;20236;-82
2021/03/24 09:31:33;;;;;;;5.10;4.70;;;9.40;1.00;;;;;;4854644;28;20194;-85
2021/03/24 09:34:02;;;;;;;5.93;5.33;;;9.40;1.00;;;;;;4856616;28;20554;-80
2021/03/24 09:36:48;;;;;;;5.60;5.10;;;9.50;1.00;;;;;;4855385;28;20190;-82
2021/03/24 09:39:17;;;;;;;4.23;3.83;;;9.50;1.00;;;;;;4854503;28;20613;-82
2021/03/24 09:41:44;;;;;;;3.50;3.20;;;9.70;1.00;;;;;;4856981;28;20190;-83
2021/03/24 09:44:14;;;;;;;3.70;3.40;;;9.90;1.00;;;;;;4856664;28;20198;-80
2021/03/24 09:46:42;;;;;;;5.30;4.90;;;10.00;1.00;;;;;;4875687;28;20635;-85
2021/03/24 09:49:18;;;;;;;4.57;4.17;;;10.20;1.00;;;;;;4874981;28;20189;-80
2021/03/24 09:51:43;;;;;;;4.53;4.13;;;10.50;1.00;;;;;;4876128;28;20185;-80
2021/03/24 09:54:15;;;;;;;5.63;5.17;;;10.80;1.00;;;;;;4857667;28;20213;-80
2021/03/24 09:56:39;;;;;;;3.50;3.13;;;11.10;1.00;;;;;;4874026;28;20232;-82
2021/03/24 09:59:07;;;;;;;3.37;2.97;;;11.40;1.00;;;;;;4857536;28;20232;-84
2021/03/24 10:01:50;;;;;;;3.40;3.10;;;11.70;1.00;;;;;;4849124;28;20230;-81
2021/03/24 10:04:22;;;;;;;3.10;2.90;;;12.10;1.00;;;;;;4856505;28;20178;-85
2021/03/24 10:06:54;;;;;;;3.90;3.60;;;12.30;1.00;;;;;;4848267;28;20194;-85
2021/03/24 10:09:26;;;;;;;2.50;2.30;;;12.40;1.00;;;;;;4861055;28;20196;-81
2021/03/24 10:11:56;;;;;;;3.83;3.53;;;12.50;1.00;;;;;;4876858;28;20201;-78
2021/03/24 10:14:32;;;;;;;2.20;2.07;;;12.60;1.00;;;;;;4878282;28;20601;-79
2021/03/24 10:17:00;;;;;;;3.10;2.90;;;12.70;1.00;;;;;;4879255;28;20189;-77
2021/03/24 10:19:32;;;;;;;3.50;3.17;;;12.80;1.00;;;;;;4860361;28;20291;-76
2021/03/24 10:21:59;;;;;;;3.47;3.17;;;12.90;1.00;;;;;;4876728;28;20655;-75
2021/03/24 10:24:24;;;;;;;2.83;2.63;;;12.90;1.00;;;;;;4879497;28;20185;-75
2021/03/24 10:26:53;;;;;;;2.13;2.00;;;12.70;99.90;;;;;;4877434;28;20543;-78
2021/03/24 10:29:19;;;;;;;2.40;1.67;;;12.50;99.90;;;;;;4876248;28;20228;-78
2021/03/24 10:31:44;;;;;;;3.93;3.63;;;12.30;99.90;;;;;;4879179;28;20189;-75
2021/03/24 10:34:12;;;;;;;4.53;4.20;;;12.00;99.90;;;;;;4876515;28;20198;-76
2021/03/24 10:36:42;;;;;;;5.17;4.17;;;11.70;99.90;;;;;;4877507;28;20193;-76
2021/03/24 10:39:10;;;;;;;3.50;3.17;;;11.50;99.90;;;;;;4877005;28;20251;-79
2021/03/24 10:41:47;;;;;;;2.93;2.73;;;11.30;99.90;;;;;;4878328;28;20243;-77
2021/03/24 10:44:16;;;;;;;2.97;2.77;;;11.20;99.90;;;;;;4859582;28;20220;-75
2021/03/24 10:46:44;;;;;;;2.90;2.70;;;11.20;1.00;;;;;;4877455;28;20205;-73
2021/03/24 10:49:14;;;;;;;2.07;1.97;;;11.20;99.90;;;;;;4843951;28;20194;-72
2021/03/24 10:51:54;;;;;;;2.17;2.03;;;11.20;1.00;;;;;;4876792;28;20197;-73
2021/03/24 10:54:20;;;;;;;3.60;3.30;;;11.20;1.00;;;;;;4876045;28;20209;-75
2021/03/24 10:56:52;;;;;;;2.80;2.60;;;11.20;99.90;;;;;;4876969;28;20327;-79
2021/03/24 10:59:23;;;;;;;4.33;3.93;;;11.10;99.90;;;;;;4878089;28;20213;-76
2021/03/24 11:01:50;;;;;;;3.60;3.33;;;11.10;99.90;;;;;;4873925;28;20229;-73
2021/03/24 11:04:24;;;;;;;2.90;2.70;;;11.00;99.90;;;;;;4877062;28;20549;-74
2021/03/24 11:06:55;;;;;;;4.13;3.83;;;11.00;1.00;;;;;;4875937;28;20185;-75
2021/03/24 11:09:22;;;;;;;5.23;4.80;;;11.10;1.00;;;;;;4876410;28;20213;-77
2021/03/24 11:11:48;;;;;;;4.50;4.10;;;11.40;1.00;;;;;;4843946;28;20234;-75
2021/03/24 11:14:15;;;;;;;3.17;2.87;;;11.60;99.90;;;;;;4878647;28;20243;-75
2021/03/24 11:16:41;;;;;;;3.53;3.23;;;11.80;1.00;;;;;;4877437;28;20236;-76
2021/03/24 11:19:11;;;;;;;1.83;1.73;;;12.10;99.90;;;;;;4876119;28;20266;-84
2021/03/24 11:21:42;;;;;;;2.60;2.40;;;12.40;99.90;;;;;;4859958;28;20201;-78
2021/03/24 11:24:21;;;;;;;4.97;4.57;;;12.60;99.90;;;;;;4859586;28;20186;-76
2021/03/24 11:26:56;;;;;;;3.13;2.93;;;12.70;99.90;;;;;;4858641;28;20740;-75
2021/03/24 11:29:22;;;;;;;2.90;2.70;;;12.90;99.90;;;;;;4859311;28;20189;-76
2021/03/24 11:31:57;;;;;;;4.17;3.87;;;13.00;99.90;;;;;;4878158;28;20193;-78
2021/03/24 11:34:25;;;;;;;3.47;3.17;;;13.20;99.90;;;;;;4859841;28;20207;-75
2021/03/24 11:36:55;;;;;;;2.03;1.93;;;13.40;99.90;;;;;;4877691;28;20540;-76
2021/03/24 11:39:23;;;;;;;4.67;4.37;;;13.80;99.90;;;;;;4858047;28;20217;-75
2021/03/24 11:41:45;;;;;;;3.60;3.33;;;14.40;99.90;;;;;;4876875;28;20239;-76
2021/03/24 11:44:11;;;;;;;1.80;1.70;;;14.70;99.90;;;;;;4875955;28;20298;-85
2021/03/24 11:46:51;;;;;;;1.43;1.33;;;14.80;99.90;;;;;;4876415;28;20185;-76
2021/03/24 11:49:30;;;;;;;2.13;2.03;;;14.80;99.90;;;;;;4875021;28;20193;-77
2021/03/24 11:52:14;;;;;;;2.00;1.90;;;14.80;99.90;;;;;;4875787;28;20193;-75
2021/03/24 11:54:42;;;;;;;1.67;1.57;;;14.80;99.90;;;;;;4877525;28;20204;-75
2021/03/24 11:57:16;;;;;;;1.57;1.47;;;15.10;99.90;;;;;;4875900;28;20197;-75
2021/03/24 11:59:51;;;;;;;1.27;1.27;;;15.30;99.90;;;;;;4875967;28;20713;-80
2021/03/24 12:02:18;;;;;;;0.93;0.87;;;15.50;99.90;;;;;;4860090;28;20225;-74
2021/03/24 12:04:59;;;;;;;0.87;0.87;;;15.60;99.90;;;;;;4858154;28;20190;-75
2021/03/24 12:07:30;;;;;;;0.80;0.80;;;15.60;99.90;;;;;;4872211;28;20228;-74
2021/03/24 12:10:04;;;;;;;0.90;0.90;;;15.50;99.90;;;;;;4873877;28;20225;-75
2021/03/24 12:12:26;;;;;;;0.73;0.73;;;15.50;99.90;;;;;;4877516;28;20696;-75
2021/03/24 12:15:02;;;;;;;0.70;0.70;;;15.30;99.90;;;;;;4875282;28;20208;-79
2021/03/24 12:17:28;;;;;;;0.80;0.80;;;15.10;99.90;;;;;;4877137;28;20178;-75
2021/03/24 12:19:50;;;;;;;0.73;0.73;;;14.90;99.90;;;;;;4857369;28;20233;-75
2021/03/24 12:22:26;;;;;;;0.77;0.77;;;14.50;99.90;;;;;;4876318;28;20257;-76
2021/03/24 12:24:58;;;;;;;0.93;0.93;;;14.20;99.90;;;;;;4858791;28;20205;-84
2021/03/24 12:27:23;;;;;;;1.13;1.13;;;13.90;99.90;;;;;;4859156;28;20228;-77
2021/03/24 12:29:56;;;;;;;1.23;1.13;;;13.60;99.90;;;;;;4857864;28;20244;-75
2021/03/24 12:32:23;;;;;;;1.17;1.07;;;13.50;99.90;;;;;;4857670;28;20233;-76
2021/03/24 12:34:46;;;;;;;1.17;1.17;;;13.50;99.90;;;;;;4858792;28;20589;-75
2021/03/24 12:37:23;;;;;;;0.97;0.97;;;13.40;99.90;;;;;;4876816;28;20610;-77
2021/03/24 12:39:45;;;;;;;1.37;1.27;;;13.40;99.90;;;;;;4875905;28;20258;-74
2021/03/24 12:42:20;;;;;;;1.03;1.03;;;13.40;99.90;;;;;;4876370;28;20202;-75
2021/03/24 12:45:36;;;;;;;1.20;1.00;;;13.30;99.90;;;;;;4875273;28;20184;-74
2021/03/24 12:48:27;;;;;;;1.23;1.23;;;13.30;99.90;;;;;;4875227;28;20199;-74
2021/03/24 12:50:57;;;;;;;1.27;1.27;;;13.40;99.90;;;;;;4875942;28;20197;-76
2021/03/24 12:53:33;;;;;;;1.17;1.07;;;13.50;99.90;;;;;;4874135;28;20683;-76
2021/03/24 12:56:33;;;;;;;1.50;1.40;;;13.50;99.90;;;;;;4858534;28;20237;-74
2021/03/24 12:58:58;;;;;;;1.53;1.43;;;13.50;99.90;;;;;;4839929;28;20649;-75
2021/03/24 13:01:33;;;;;;;1.13;1.13;;;13.50;99.90;;;;;;4853878;28;20230;-76
2021/03/24 13:04:27;;;;;;;1.30;1.20;;;13.40;99.90;;;;;;4875415;28;20189;-75
2021/03/24 13:07:12;;;;;;;1.43;1.33;;;13.70;99.90;;;;;;4874785;28;20691;-76
2021/03/24 13:09:41;;;;;;;1.10;1.07;;;14.40;99.90;;;;;;4875666;28;20239;-75
2021/03/24 13:12:12;;;;;;;0.87;0.87;;;15.10;99.90;;;;;;4876374;28;20189;-76
2021/03/24 13:14:50;;;;;;;0.70;0.70;;;16.00;99.90;;;;;;4841974;28;20193;-75
2021/03/24 13:17:24;;;;;;;0.77;0.77;;;16.40;99.90;;;;;;4858049;28;20229;-74
2021/03/24 13:19:57;;;;;;;0.53;0.53;;;16.60;99.90;;;;;;4873450;28;20236;-74
2021/03/24 13:22:23;;;;;;;0.50;0.50;;;16.60;99.90;;;;;;4874418;28;20208;-75
2021/03/24 13:25:11;;;;;;;1.13;0.60;;;16.60;99.90;;;;;;4876038;28;20663;-75
2021/03/24 13:27:42;;;;;;;0.60;0.60;;;18.50;99.90;;;;;;4857434;28;20230;-75
2021/03/24 13:30:15;;;;;;;0.63;0.40;;;20.00;99.90;;;;;;4873928;28;20275;-72
2021/03/24 13:32:46;;;;;;;0.30;0.30;;;21.90;99.90;;;;;;4874882;28;20206;-77
2021/03/24 13:35:16;;;;;;;0.20;0.20;;;24.00;99.90;;;;;;4874481;28;20249;-75